ROMMA est une association bénévole à but non lucratif. Votre soutien est indispensable : ADHERER à ROMMA ou FAIRE un DON

Voiron - (38, Isère)

Voironnais (300 m)   Longitude: 05° 35' E   Latitude: 45° 23' N Station partenaire n°109
 

Détail journalier du     <<     >>

Température Precipitation Humidité Pression Vent Dir Rafale Dir. rafale Ensol.
Heure (°C) (mm) (%) (hPa) (km/h) (km/h) (min)
01:00 20.407610172N13SE0
02:00 18.807910173SSE10S0
03:00 18.608110162SSE11OSO0
04:00 17.808110163SE13SSE0
05:00 17.008410172S11SSE0
06:00 16.708510172SSE6SO0
07:00 17.308410173S13S0
08:00 20.507410163N11SE60
09:00 21.806910173S16SO60
10:00 23.606310165S15SSO60
11:00 24.206010159SSO21S30
12:00 24.3062101514S27S30
13:00 26.005910158S21SSE30
14:00 27.605610153E11SSE0
15:00 28.605610146S16S60
16:00 28.605510148S21S30
17:00 28.505510148SSO19SSO0
18:00 28.404710145SSO11SSO0
19:00 28.804310136SSO13SE30
20:00 28.604010135SSO15O60
21:00 27.404510143SSE8S60
22:00 23.605710142NO5NO0
23:00 21.806210142NO5NO0
minuit 20.606610152NO5NO0

Graphique du 18-06-2019

 

Serveur OMMA